Chapleau Airport
CYLD : rendu visible

Aérodrome :











RETROUVEZ-NOUS SUR...

 
LOGIN :

S'inscrire | Disclaimer

   EN    FR    IT 

 









Légende :    VFR   VFR Marginal   IFR   IFR Intensif   IFR Très Intensif
Visi : 
Plafond : 
>= 8 km
>= 3000ft
5 à 8 km
1000 à 3000 ft
1500m à 5 km
500 à 1000 ft
800 à 1500m
200 à 500 ft
< 800m
< 200 ft
Symboles :   Orages  Brouillard  Fortes neiges  Fortes précipitations  Vent > 20 kt






- Altitude de l'aérodrome : 1470 ft
- Code IATA : YLD


CYLD - Chapleau

DERNIER METAR :
  • 131600Z VRB03KT 15SM FEW260 27/10 A3021 RMK CI2 SLP235 DENSITY ALT 2900FT

METARs EXPIRÉS :
  • 131500Z VRB02KT 15SM FEW260 25/14 A3021 RMK CI2 SLP237 DENSITY ALT 2700FT
  • 131400Z 00000KT 15SM FEW260 21/14 A3022 RMK CI1 SLP239 DENSITY ALT 2200FT

TAF TAF CYLD
Valide du 13 à 14h jusqu'au 14 à 01h UTC


131338Z 1314/1401 VRB03KT P6SM SCT240
BECMG 1316/1318 09006KT
FM132000 09006KT P6SM SCT080
TEMPO 1320/1401 BKN080 RMK NXT FCST BY 132000Z
FIR CZYZ / Amérique du Nord



MET'MAP, la Météo Aéronautique d'un coup d'oeil ! - Copyright ORBIFLY Décembre 2007 - Disclaimer

ORBIFLY MET'MAP TEAM :

Programmation & Développement : Alexandra Zaïnal
Sur une idée originale de : Baudouin d'Aumeries
Assistance à la programmation : Marc-Olivier Méhu
Soutien technique & logistique : Manuel Goepfert

Contact : metmap@orbifly.com




SOURCES & CREDITS :

   NOAA       Earth
Advisory